Enguera, Spain
Current Conditions -  °F | °C
As of 2:00 PM on Saturday 01 Nov 2014 (Local Time) from LEVC Reporting Station
Few Clouds Few Clouds  
Wind Chill: 73°   Ceiling: Unl
Heat Index: 73°   Visibility: 6mi
Dew Point: 59°   Wind: 3mph
Humidity: 61%   Direction: 100°E
Pressure: 30.18"   Gusts: NA
Location:  38.98°N, 0.69°W
Report Text: LEVC 011300Z 10003KT 060V160 9999 FEW040 23/15 Q1022 NOSIG
Loading
Personal Weather Stations






























Interactive Weather Map
Tropical Storm Tracking
New forecast layout! Learn more

10-Day Weather Forecast

Advertisements
Track Severe Weather on mobile